sensor_id;sensor_type;location;lat;lon;timestamp;pressure;altitude;pressure_sealevel;temperature;humidity
57374;BME280;43964;53.890;25.340;2023-01-28T00:01:30;1030.7;;;1.6;67.7
57374;BME280;43964;53.890;25.340;2023-01-28T00:06:54;1030.7;;;1.5;68
57374;BME280;43964;53.890;25.340;2023-01-28T00:11:20;1030.7;;;1.6;68.4
57374;BME280;43964;53.890;25.340;2023-01-28T00:16:21;1030.8;;;1.7;68.4
57374;BME280;43964;53.890;25.340;2023-01-28T00:21:20;1030.8;;;1.7;68.3
57374;BME280;43964;53.890;25.340;2023-01-28T00:26:42;1030.8;;;1.8;68.2
57374;BME280;43964;53.890;25.340;2023-01-28T00:31:11;1030.8;;;1.9;68.1
57374;BME280;43964;53.890;25.340;2023-01-28T00:36:32;1030.7;;;1.9;68.1
57374;BME280;43964;53.890;25.340;2023-01-28T00:41:42;1030.8;;;1.9;68.1
57374;BME280;43964;53.890;25.340;2023-01-28T00:46:41;1030.8;;;1.9;68.2
57374;BME280;43964;53.890;25.340;2023-01-28T00:51:54;1030.8;;;1.9;68.1
57374;BME280;43964;53.890;25.340;2023-01-28T00:56:22;1030.8;;;2;68
57374;BME280;43964;53.890;25.340;2023-01-28T01:01:52;1030.8;;;2.1;67.9
57374;BME280;43964;53.890;25.340;2023-01-28T01:06:11;1030.8;;;2.1;67.8
57374;BME280;43964;53.890;25.340;2023-01-28T01:11:42;1030.8;;;2.2;67.7
57374;BME280;43964;53.890;25.340;2023-01-28T01:16:21;1030.8;;;2.2;67.8
57374;BME280;43964;53.890;25.340;2023-01-28T01:21:44;1030.8;;;2.1;67.8
57374;BME280;43964;53.890;25.340;2023-01-28T01:26:21;1030.8;;;2.1;67.7
57374;BME280;43964;53.890;25.340;2023-01-28T01:31:32;1030.9;;;2;67.7
57374;BME280;43964;53.890;25.340;2023-01-28T01:36:40;1030.9;;;2.1;67.7
57374;BME280;43964;53.890;25.340;2023-01-28T01:41:57;1030.9;;;2.1;67.7
57374;BME280;43964;53.890;25.340;2023-01-28T01:46:56;1030.9;;;2.2;67.7
57374;BME280;43964;53.890;25.340;2023-01-28T01:51:40;1030.8;;;2.1;67.6
57374;BME280;43964;53.890;25.340;2023-01-28T01:56:57;1030.8;;;2.1;67.6
57374;BME280;43964;53.890;25.340;2023-01-28T02:01:23;1030.8;;;2.1;67.5
57374;BME280;43964;53.890;25.340;2023-01-28T02:06:40;1030.7;;;2.1;67.5
57374;BME280;43964;53.890;25.340;2023-01-28T02:11:20;1030.7;;;2;67.5
57374;BME280;43964;53.890;25.340;2023-01-28T02:16:42;1030.7;;;2;67.6
57374;BME280;43964;53.890;25.340;2023-01-28T02:21:27;1030.7;;;1.9;67.6
57374;BME280;43964;53.890;25.340;2023-01-28T02:27:03;1030.7;;;1.9;67.5
57374;BME280;43964;53.890;25.340;2023-01-28T02:31:37;1030.6;;;1.8;67.6
57374;BME280;43964;53.890;25.340;2023-01-28T02:36:56;1030.6;;;1.8;67.7
57374;BME280;43964;53.890;25.340;2023-01-28T02:41:41;1030.6;;;1.9;67.6
57374;BME280;43964;53.890;25.340;2023-01-28T02:46:32;1030.6;;;2;67.6
57374;BME280;43964;53.890;25.340;2023-01-28T02:51:46;1030.6;;;2;67.6
57374;BME280;43964;53.890;25.340;2023-01-28T02:56:23;1030.6;;;2;67.6
57374;BME280;43964;53.890;25.340;2023-01-28T03:01:46;1030.6;;;2;67.6
57374;BME280;43964;53.890;25.340;2023-01-28T03:06:26;1030.6;;;1.9;67.6
57374;BME280;43964;53.890;25.340;2023-01-28T03:11:57;1030.7;;;1.9;67.6
57374;BME280;43964;53.890;25.340;2023-01-28T03:16:34;1030.7;;;1.9;67.4
57374;BME280;43964;53.890;25.340;2023-01-28T03:21:56;1030.6;;;1.9;67.4
57374;BME280;43964;53.890;25.340;2023-01-28T03:26:21;1030.7;;;1.8;67.2
57374;BME280;43964;53.890;25.340;2023-01-28T03:31:57;1030.7;;;1.8;67.1
57374;BME280;43964;53.890;25.340;2023-01-28T03:36:42;1030.7;;;1.6;67.2
57374;BME280;43964;53.890;25.340;2023-01-28T03:41:34;1030.6;;;1.6;67.3
57374;BME280;43964;53.890;25.340;2023-01-28T03:46:36;1030.7;;;1.6;67.3
57374;BME280;43964;53.890;25.340;2023-01-28T03:51:22;1030.6;;;1.7;67.3
57374;BME280;43964;53.890;25.340;2023-01-28T03:56:44;1030.6;;;1.7;67.3
57374;BME280;43964;53.890;25.340;2023-01-28T04:01:22;1030.6;;;1.7;67.4
57374;BME280;43964;53.890;25.340;2023-01-28T04:06:10;1030.7;;;1.7;67.4
57374;BME280;43964;53.890;25.340;2023-01-28T04:11:35;1030.7;;;1.6;67.6
57374;BME280;43964;53.890;25.340;2023-01-28T04:16:57;1030.6;;;1.8;67.4
57374;BME280;43964;53.890;25.340;2023-01-28T04:21:35;1030.7;;;1.9;67.2
57374;BME280;43964;53.890;25.340;2023-01-28T04:26:46;1030.7;;;2;67.2
57374;BME280;43964;53.890;25.340;2023-01-28T04:31:34;1030.7;;;1.9;67.1
57374;BME280;43964;53.890;25.340;2023-01-28T04:36:10;1030.7;;;1.8;67.2
57374;BME280;43964;53.890;25.340;2023-01-28T04:41:37;1030.8;;;1.8;67.1
57374;BME280;43964;53.890;25.340;2023-01-28T04:46:10;1030.8;;;1.8;67.1
57374;BME280;43964;53.890;25.340;2023-01-28T04:51:56;1030.7;;;1.8;67.2
57374;BME280;43964;53.890;25.340;2023-01-28T04:56:56;1030.8;;;1.7;67.4
57374;BME280;43964;53.890;25.340;2023-01-28T05:01:23;1030.8;;;1.6;67.2
57374;BME280;43964;53.890;25.340;2023-01-28T05:06:54;1030.8;;;1.6;67.7
57374;BME280;43964;53.890;25.340;2023-01-28T05:11:54;1030.8;;;1.6;67.7
57374;BME280;43964;53.890;25.340;2023-01-28T05:16:10;1030.8;;;1.6;67.6
57374;BME280;43964;53.890;25.340;2023-01-28T05:21:22;1030.8;;;1.6;67.9
57374;BME280;43964;53.890;25.340;2023-01-28T05:26:58;1030.8;;;1.6;67.9
57374;BME280;43964;53.890;25.340;2023-01-28T05:36:34;1031;;;1.6;67.8
57374;BME280;43964;53.890;25.340;2023-01-28T05:41:20;1030.9;;;1.6;67.9
57374;BME280;43964;53.890;25.340;2023-01-28T05:46:35;1030.9;;;1.6;67.9
57374;BME280;43964;53.890;25.340;2023-01-28T05:51:58;1030.9;;;1.6;68
57374;BME280;43964;53.890;25.340;2023-01-28T05:56:33;1031;;;1.6;68
57374;BME280;43964;53.890;25.340;2023-01-28T06:01:54;1031;;;1.5;68.1
57374;BME280;43964;53.890;25.340;2023-01-28T06:06:34;1030.9;;;1.6;68
57374;BME280;43964;53.890;25.340;2023-01-28T06:11:44;1031;;;1.6;68
57374;BME280;43964;53.890;25.340;2023-01-28T06:16:20;1030.9;;;1.7;68
57374;BME280;43964;53.890;25.340;2023-01-28T06:21:44;1031;;;1.9;67.9
57374;BME280;43964;53.890;25.340;2023-01-28T06:26:32;1031;;;1.9;67.8
57374;BME280;43964;53.890;25.340;2023-01-28T06:31:10;1031;;;1.8;67.9
57374;BME280;43964;53.890;25.340;2023-01-28T06:36:43;1031.1;;;1.8;68
57374;BME280;43964;53.890;25.340;2023-01-28T06:41:37;1031.1;;;1.8;68
57374;BME280;43964;53.890;25.340;2023-01-28T06:51:36;1031.1;;;1.8;68
57374;BME280;43964;53.890;25.340;2023-01-28T06:56:58;1031.1;;;1.8;68
57374;BME280;43964;53.890;25.340;2023-01-28T07:01:32;1031.2;;;2;67.5
57374;BME280;43964;53.890;25.340;2023-01-28T07:06:20;1031.2;;;2.1;67.8
57374;BME280;43964;53.890;25.340;2023-01-28T07:11:10;1031.2;;;2.2;67.6
57374;BME280;43964;53.890;25.340;2023-01-28T07:16:34;1031.2;;;2.3;67.4
57374;BME280;43964;53.890;25.340;2023-01-28T07:21:34;1031.2;;;2.4;67.4
57374;BME280;43964;53.890;25.340;2023-01-28T07:26:24;1031.2;;;2.4;67.4
57374;BME280;43964;53.890;25.340;2023-01-28T07:31:40;1031.2;;;2.4;67.4
57374;BME280;43964;53.890;25.340;2023-01-28T07:36:43;1031.1;;;2.6;67.2
57374;BME280;43964;53.890;25.340;2023-01-28T07:41:56;1031.2;;;2.5;67.2
57374;BME280;43964;53.890;25.340;2023-01-28T07:46:10;1031.1;;;2.7;67.1
57374;BME280;43964;53.890;25.340;2023-01-28T07:51:59;1031.2;;;2.7;66.9
57374;BME280;43964;53.890;25.340;2023-01-28T07:56:23;1031.2;;;2.8;66.7
57374;BME280;43964;53.890;25.340;2023-01-28T08:01:42;1031.1;;;3;66.5
57374;BME280;43964;53.890;25.340;2023-01-28T08:06:23;1031.1;;;3;66.2
57374;BME280;43964;53.890;25.340;2023-01-28T08:11:45;1031.1;;;3.1;66.4
57374;BME280;43964;53.890;25.340;2023-01-28T08:16:20;1031.1;;;3.3;66.1
57374;BME280;43964;53.890;25.340;2023-01-28T08:21:10;1031;;;3.4;65.9
57374;BME280;43964;53.890;25.340;2023-01-28T08:26:22;1031.1;;;3.4;65.9
57374;BME280;43964;53.890;25.340;2023-01-28T08:31:57;1031.2;;;3.4;65.7
57374;BME280;43964;53.890;25.340;2023-01-28T08:36:56;1031.1;;;3.3;65.7
57374;BME280;43964;53.890;25.340;2023-01-28T08:41:42;1031.1;;;3.3;65.7
57374;BME280;43964;53.890;25.340;2023-01-28T08:46:59;1031.1;;;3.3;65.6
57374;BME280;43964;53.890;25.340;2023-01-28T08:51:10;1031.1;;;3.5;65.4
57374;BME280;43964;53.890;25.340;2023-01-28T08:56:21;1031;;;3.6;65.2
57374;BME280;43964;53.890;25.340;2023-01-28T09:01:32;1031;;;3.6;64.9
57374;BME280;43964;53.890;25.340;2023-01-28T09:06:57;1031;;;3.8;64.7
57374;BME280;43964;53.890;25.340;2023-01-28T09:11:32;1031;;;3.8;64.6
57374;BME280;43964;53.890;25.340;2023-01-28T09:16:59;1031;;;4;64.3
57374;BME280;43964;53.890;25.340;2023-01-28T09:21:59;1031;;;4;64.3
57374;BME280;43964;53.890;25.340;2023-01-28T09:26:59;1031;;;4;64.4
57374;BME280;43964;53.890;25.340;2023-01-28T09:31:42;1031;;;4;64.4
57374;BME280;43964;53.890;25.340;2023-01-28T09:36:10;1031;;;3.9;64.3
57374;BME280;43964;53.890;25.340;2023-01-28T09:41:25;1031;;;3.9;64.3
57374;BME280;43964;53.890;25.340;2023-01-28T09:46:33;1031;;;4;64.1
57374;BME280;43964;53.890;25.340;2023-01-28T09:51:46;1031;;;4.1;64
57374;BME280;43964;53.890;25.340;2023-01-28T09:57:00;1031;;;4.3;63.7
57374;BME280;43964;53.890;25.340;2023-01-28T10:01:35;1031;;;4.3;63.6
57374;BME280;43964;53.890;25.340;2023-01-28T10:06:39;1031;;;4.3;63.5
57374;BME280;43964;53.890;25.340;2023-01-28T10:12:02;1031;;;4.3;63.4
57374;BME280;43964;53.890;25.340;2023-01-28T10:16:36;1031;;;4.3;63.3
57374;BME280;43964;53.890;25.340;2023-01-28T10:21:47;1030.9;;;4.3;63.2
57374;BME280;43964;53.890;25.340;2023-01-28T10:26:24;1030.9;;;4.3;62.9
57374;BME280;43964;53.890;25.340;2023-01-28T10:31:11;1030.9;;;4.3;62.7
57374;BME280;43964;53.890;25.340;2023-01-28T10:36:20;1030.8;;;4.3;62.8
57374;BME280;43964;53.890;25.340;2023-01-28T10:41:23;1030.9;;;4.2;62.8
57374;BME280;43964;53.890;25.340;2023-01-28T10:47:00;1030.8;;;4;63
57374;BME280;43964;53.890;25.340;2023-01-28T10:51:57;1030.8;;;4;62.9
57374;BME280;43964;53.890;25.340;2023-01-28T10:56:22;1030.6;;;4;62.8
57374;BME280;43964;53.890;25.340;2023-01-28T11:01:55;1030.5;;;4;62.9
57374;BME280;43964;53.890;25.340;2023-01-28T11:06:58;1030.4;;;4;63
57374;BME280;43964;53.890;25.340;2023-01-28T11:11:35;1030.4;;;4;63
57374;BME280;43964;53.890;25.340;2023-01-28T11:16:13;1030.4;;;4.1;63
57374;BME280;43964;53.890;25.340;2023-01-28T11:21:23;1030.4;;;4.2;62.9
57374;BME280;43964;53.890;25.340;2023-01-28T11:26:23;1030.3;;;4.4;62.5
57374;BME280;43964;53.890;25.340;2023-01-28T11:57:31;1030.1;;;4.8;61.4
57374;BME280;43964;53.890;25.340;2023-01-28T12:01:55;1030.1;;;4.7;61.5
57374;BME280;43964;53.890;25.340;2023-01-28T12:06:34;1030.1;;;4.7;61.5
57374;BME280;43964;53.890;25.340;2023-01-28T12:46:36;1029.9;;;4.7;61.2
57374;BME280;43964;53.890;25.340;2023-01-28T12:51:58;1029.9;;;4.7;61.2
57374;BME280;43964;53.890;25.340;2023-01-28T13:51:35;1029.6;;;4.3;61.2
57374;BME280;43964;53.890;25.340;2023-01-28T13:56:50;1029.6;;;4.1;61.6
57374;BME280;43964;53.890;25.340;2023-01-28T14:01:29;1029.6;;;4.1;61.8
57374;BME280;43964;53.890;25.340;2023-01-28T14:06:57;1029.5;;;4.1;62
57374;BME280;43964;53.890;25.340;2023-01-28T14:11:59;1029.5;;;4.1;61.9
57374;BME280;43964;53.890;25.340;2023-01-28T14:16:35;1029.5;;;3.9;62.1
57374;BME280;43964;53.890;25.340;2023-01-28T14:21:45;1029.5;;;3.8;62.3
57374;BME280;43964;53.890;25.340;2023-01-28T14:26:51;1029.5;;;3.7;62.4
57374;BME280;43964;53.890;25.340;2023-01-28T14:31:55;1029.5;;;3.7;62.4
57374;BME280;43964;53.890;25.340;2023-01-28T14:36:57;1029.4;;;3.7;62.4
57374;BME280;43964;53.890;25.340;2023-01-28T14:41:57;1029.4;;;3.7;62.4
57374;BME280;43964;53.890;25.340;2023-01-28T14:46:25;1029.5;;;3.6;62.4
57374;BME280;43964;53.890;25.340;2023-01-28T14:51:49;1029.5;;;3.6;62.5
57374;BME280;43964;53.890;25.340;2023-01-28T14:56:26;1029.5;;;3.5;62.6
57374;BME280;43964;53.890;25.340;2023-01-28T15:01:45;1029.4;;;3.4;62.8
57374;BME280;43964;53.890;25.340;2023-01-28T15:06:23;1029.4;;;3.4;63
57374;BME280;43964;53.890;25.340;2023-01-28T15:11:57;1029.3;;;3.4;63
57374;BME280;43964;53.890;25.340;2023-01-28T15:16:21;1029.4;;;3.4;63
57374;BME280;43964;53.890;25.340;2023-01-28T15:21:59;1029.4;;;3.4;63
57374;BME280;43964;53.890;25.340;2023-01-28T15:26:45;1029.3;;;3.4;63
57374;BME280;43964;53.890;25.340;2023-01-28T15:31:46;1029.4;;;3.4;62.9
57374;BME280;43964;53.890;25.340;2023-01-28T15:36:57;1029.4;;;3.3;63
57374;BME280;43964;53.890;25.340;2023-01-28T15:41:11;1029.4;;;3.2;63.4
57374;BME280;43964;53.890;25.340;2023-01-28T15:46:47;1029.4;;;3.2;63.5
57374;BME280;43964;53.890;25.340;2023-01-28T15:51:23;1029.4;;;3.2;63.7
57374;BME280;43964;53.890;25.340;2023-01-28T15:56:45;1029.4;;;3.2;63.7
57374;BME280;43964;53.890;25.340;2023-01-28T16:01:21;1029.4;;;3.3;63.7
57374;BME280;43964;53.890;25.340;2023-01-28T16:07:02;1029.4;;;3.3;63.6
57374;BME280;43964;53.890;25.340;2023-01-28T16:11:11;1029.3;;;3.3;63.5
57374;BME280;43964;53.890;25.340;2023-01-28T16:16:59;1029.3;;;3.3;63.5
57374;BME280;43964;53.890;25.340;2023-01-28T16:21:45;1029.3;;;3.3;63.5
57374;BME280;43964;53.890;25.340;2023-01-28T16:26:35;1029.3;;;3.3;63.6
57374;BME280;43964;53.890;25.340;2023-01-28T16:31:23;1029.3;;;3.1;63.5
57374;BME280;43964;53.890;25.340;2023-01-28T16:36:23;1029.3;;;3.1;63.7
57374;BME280;43964;53.890;25.340;2023-01-28T16:41:45;1029.3;;;2.9;63.2
57374;BME280;43964;53.890;25.340;2023-01-28T16:46:25;1029.3;;;2.7;64.1
57374;BME280;43964;53.890;25.340;2023-01-28T16:51:33;1029.3;;;2.8;64.2
57374;BME280;43964;53.890;25.340;2023-01-28T16:56:12;1029.2;;;2.9;64
57374;BME280;43964;53.890;25.340;2023-01-28T17:01:59;1029.3;;;2.9;64.2
57374;BME280;43964;53.890;25.340;2023-01-28T17:06:23;1029.3;;;3;64.2
57374;BME280;43964;53.890;25.340;2023-01-28T17:11:47;1029.2;;;3;64.2
57374;BME280;43964;53.890;25.340;2023-01-28T17:16:37;1029.1;;;3.1;64.1
57374;BME280;43964;53.890;25.340;2023-01-28T17:21:35;1029.2;;;3.1;64.1
57374;BME280;43964;53.890;25.340;2023-01-28T17:26:35;1029.2;;;3.1;63.8
57374;BME280;43964;53.890;25.340;2023-01-28T17:31:25;1029.3;;;3;63.9
57374;BME280;43964;53.890;25.340;2023-01-28T17:37:03;1029.3;;;3;63.9
57374;BME280;43964;53.890;25.340;2023-01-28T17:42:01;1029.3;;;2.8;63.9
57374;BME280;43964;53.890;25.340;2023-01-28T17:47:03;1029.2;;;2.8;64
57374;BME280;43964;53.890;25.340;2023-01-28T17:52:03;1029.3;;;2.9;64.1
57374;BME280;43964;53.890;25.340;2023-01-28T17:57:03;1029.3;;;2.9;64.1
57374;BME280;43964;53.890;25.340;2023-01-28T18:01:11;1029.3;;;2.9;64
57374;BME280;43964;53.890;25.340;2023-01-28T18:06:21;1029.3;;;2.9;64.2
57374;BME280;43964;53.890;25.340;2023-01-28T18:11:17;1029.3;;;2.9;64.2
57374;BME280;43964;53.890;25.340;2023-01-28T18:16:35;1029.3;;;2.9;64.1
57374;BME280;43964;53.890;25.340;2023-01-28T18:21:35;1029.3;;;2.9;64
57374;BME280;43964;53.890;25.340;2023-01-28T18:26:11;1029.3;;;2.9;64.1
57374;BME280;43964;53.890;25.340;2023-01-28T18:31:45;1029.4;;;3;64.1
57374;BME280;43964;53.890;25.340;2023-01-28T18:36:47;1029.4;;;3;64
57374;BME280;43964;53.890;25.340;2023-01-28T18:41:11;1029.4;;;3.1;64
57374;BME280;43964;53.890;25.340;2023-01-28T18:46:59;1029.4;;;3.1;63.9
57374;BME280;43964;53.890;25.340;2023-01-28T18:51:23;1029.4;;;3.1;63.9
57374;BME280;43964;53.890;25.340;2023-01-28T18:56:49;1029.4;;;3;63.8
57374;BME280;43964;53.890;25.340;2023-01-28T19:01:11;1029.3;;;2.9;64
57374;BME280;43964;53.890;25.340;2023-01-28T19:06:47;1029.4;;;2.9;64
57374;BME280;43964;53.890;25.340;2023-01-28T19:11:11;1029.3;;;2.9;64
57374;BME280;43964;53.890;25.340;2023-01-28T19:16:39;1029.3;;;2.9;64
57374;BME280;43964;53.890;25.340;2023-01-28T19:21:47;1029.2;;;2.9;63.9
57374;BME280;43964;53.890;25.340;2023-01-28T19:26:47;1029.2;;;2.9;63.9
57374;BME280;43964;53.890;25.340;2023-01-28T19:31:55;1029.3;;;3;63.8
57374;BME280;43964;53.890;25.340;2023-01-28T19:36:35;1029.3;;;3;63.7
57374;BME280;43964;53.890;25.340;2023-01-28T19:42:03;1029.2;;;2.9;63.6
57374;BME280;43964;53.890;25.340;2023-01-28T19:46:23;1029.1;;;2.9;63.8
57374;BME280;43964;53.890;25.340;2023-01-28T19:51:49;1029.2;;;2.9;63.8
57374;BME280;43964;53.890;25.340;2023-01-28T19:56:11;1029.2;;;2.9;63.8
57374;BME280;43964;53.890;25.340;2023-01-28T20:01:47;1029.2;;;2.9;63.8
57374;BME280;43964;53.890;25.340;2023-01-28T20:06:23;1029.3;;;2.9;63.8
57374;BME280;43964;53.890;25.340;2023-01-28T20:11:37;1029.3;;;2.9;63.8
57374;BME280;43964;53.890;25.340;2023-01-28T20:16:47;1029.2;;;2.8;63.8
57374;BME280;43964;53.890;25.340;2023-01-28T20:21:49;1029.2;;;2.7;63.9
57374;BME280;43964;53.890;25.340;2023-01-28T20:27:01;1029.3;;;2.7;63.8
57374;BME280;43964;53.890;25.340;2023-01-28T20:31:29;1029.2;;;2.7;63.8
57374;BME280;43964;53.890;25.340;2023-01-28T20:37:01;1029.2;;;2.6;63.7
57374;BME280;43964;53.890;25.340;2023-01-28T20:41:37;1029.3;;;2.6;63.9
57374;BME280;43964;53.890;25.340;2023-01-28T20:46:47;1029.2;;;2.6;63.8
57374;BME280;43964;53.890;25.340;2023-01-28T20:51:25;1029.1;;;2.6;63.8
57374;BME280;43964;53.890;25.340;2023-01-28T20:56:51;1029.1;;;2.6;63.6
57374;BME280;43964;53.890;25.340;2023-01-28T21:01:35;1029.1;;;2.6;63.5
57374;BME280;43964;53.890;25.340;2023-01-28T21:06:47;1029.1;;;2.5;63.5
57374;BME280;43964;53.890;25.340;2023-01-28T21:11:49;1029.2;;;2.5;63.5
57374;BME280;43964;53.890;25.340;2023-01-28T21:17:03;1029.1;;;2.5;63.4
57374;BME280;43964;53.890;25.340;2023-01-28T21:22:01;1029.1;;;2.5;63.3
57374;BME280;43964;53.890;25.340;2023-01-28T21:26:37;1029.1;;;2.5;63.2
57374;BME280;43964;53.890;25.340;2023-01-28T21:31:59;1029.1;;;2.5;63.2
57374;BME280;43964;53.890;25.340;2023-01-28T21:36:37;1029.1;;;2.4;63.1
57374;BME280;43964;53.890;25.340;2023-01-28T21:41:11;1029;;;2.3;63.1
57374;BME280;43964;53.890;25.340;2023-01-28T21:46:11;1029.1;;;2.3;63.2
57374;BME280;43964;53.890;25.340;2023-01-28T21:51:51;1029;;;2.3;63
57374;BME280;43964;53.890;25.340;2023-01-28T21:56:40;1028.8;;;2.3;63
57374;BME280;43964;53.890;25.340;2023-01-28T22:02:01;1028.8;;;2.3;62.8
57374;BME280;43964;53.890;25.340;2023-01-28T22:06:11;1028.8;;;2.3;62.7
57374;BME280;43964;53.890;25.340;2023-01-28T22:12:03;1028.8;;;2.3;62.6
57374;BME280;43964;53.890;25.340;2023-01-28T22:16:49;1028.8;;;2.2;62.7
57374;BME280;43964;53.890;25.340;2023-01-28T22:21:25;1028.6;;;2.1;62.7
57374;BME280;43964;53.890;25.340;2023-01-28T22:26:11;1028.5;;;2.1;62.6
57374;BME280;43964;53.890;25.340;2023-01-28T22:31:25;1028.5;;;2.1;62.3
57374;BME280;43964;53.890;25.340;2023-01-28T22:36:47;1028.5;;;2.1;62
57374;BME280;43964;53.890;25.340;2023-01-28T22:41:25;1028.5;;;2.2;61.8
57374;BME280;43964;53.890;25.340;2023-01-28T22:46:11;1028.5;;;2.1;61.9
57374;BME280;43964;53.890;25.340;2023-01-28T22:51:39;1028.5;;;2.1;61.9
57374;BME280;43964;53.890;25.340;2023-01-28T22:56:57;1028.4;;;2.1;61.7
57374;BME280;43964;53.890;25.340;2023-01-28T23:01:35;1028.4;;;2.1;61.5
57374;BME280;43964;53.890;25.340;2023-01-28T23:06:43;1028.5;;;2;61.5
57374;BME280;43964;53.890;25.340;2023-01-28T23:11:33;1028.6;;;2;61.6
57374;BME280;43964;53.890;25.340;2023-01-28T23:16:21;1028.6;;;2;61.6
57374;BME280;43964;53.890;25.340;2023-01-28T23:21:34;1028.4;;;1.8;61.2
57374;BME280;43964;53.890;25.340;2023-01-28T23:26:11;1028.4;;;1.7;61.2
57374;BME280;43964;53.890;25.340;2023-01-28T23:31:55;1028.4;;;1.6;61
57374;BME280;43964;53.890;25.340;2023-01-28T23:36:57;1028.4;;;1.6;61
57374;BME280;43964;53.890;25.340;2023-01-28T23:41:41;1028.4;;;1.5;61.1
57374;BME280;43964;53.890;25.340;2023-01-28T23:46:57;1028.4;;;1.4;61.1
57374;BME280;43964;53.890;25.340;2023-01-28T23:51:59;1028.3;;;1.4;61
57374;BME280;43964;53.890;25.340;2023-01-28T23:56:33;1028.3;;;1.4;60.9
